Weather observations for the past three days for
Bolinder Field-Tooele Valley Airport
Imperial (Metric)
Date Time (mdt) Wind (mph) Vis. (mi.) Weather Sky Cond. Temperature (ºF) Relative Humidity Wind Chill (°F) Heat Index (°F) Pressure Precipitation (in)
Air Dwpt 6 hour altimeter (in) sea level (mb) 1 hr 3 hr 6 hr
Max. Min.
10 08:35 S 14 5.00 Fair with Haze CLR 62.6 21.2 20% 30.19 0.0
10 08:15 S 15 5.00 Fair with Haze CLR 60.8 21.2 22% 30.19 0.0
10 07:55 S 7 5.00 Fair with Haze CLR 57.2 21.2 25% 30.19 0.0
10 07:35 S 12 5.00 Fair with Haze CLR 55.4 21.2 26% 30.18 0.0
10 07:15 SW 10 5.00 Fair with Haze CLR 51.8 21.2 30% 30.18 0.0
10 06:55 Vrbl 1 5.00 Fair with Haze CLR 46.4 21.2 37% 30.17 0.0
10 06:35 S 12 5.00 Fair with Haze CLR 46.4 21.2 37% 42 30.17 0.0
10 06:15 S 12 5.00 Fair with Haze CLR 48.2 21.2 34% 44 30.17 0.0
10 05:55 S 13 5.00 Fair with Haze CLR 46.4 23 53.2 44.1 40% 41 30.16 0.0
10 05:35 S 12 5.00 Fair with Haze CLR 46.4 23 40% 42 30.16 0.0
10 05:15 S 13 5.00 Fair with Haze CLR 48.2 23 37% 43 30.16 0.0
10 04:55 S 10 6.00 Fair with Haze CLR 44.6 24.8 46% 40 30.16 0.0
10 04:35 S 10 6.00 Fair with Haze CLR 44.6 24.8 46% 40 30.15 0.0
10 04:15 S 13 5.00 Fair with Haze CLR 46.4 24.8 43% 41 30.16 0.0
10 03:55 S 9 5.00 Fair with Haze CLR 46.4 24.8 43% 42 30.15 0.0
10 03:35 S 10 6.00 Fair with Haze CLR 44.6 23 43% 40 30.15 0.0
10 03:15 S 9 5.00 Fair with Haze CLR 46.4 23 40% 42 30.15 0.0
10 02:56 S 10 5.00 Fair with Haze CLR 46.4 23 40% 42 30.15 0.0
10 02:35 S 12 5.00 Fair with Haze CLR 46.4 21.2 37% 42 30.14 0.0
10 02:15 S 10 5.00 Fair with Haze CLR 46.4 23 40% 42 30.14 0.0
10 01:35 S 10 5.00 Fair with Haze CLR 48.2 21.2 34% 44 30.14 0.0
10 01:15 S 7 5.00 Fair with Haze CLR 50 23 35% 48 30.14 0.0
10 00:55 SE 3 5.00 Fair with Haze CLR 50 23 35% 30.14 0.0
10 00:35 S 6 5.00 Fair with Haze CLR 50 23 35% 48 30.13 0.0
10 00:15 S 6 5.00 Fair with Haze CLR 50 23 35% 48 30.12 0.0
09 23:55 S 7 5.00 Fair with Haze CLR 46.4 24.8 79.2 46.2 43% 43 30.12 0.0
09 23:35 SE 8 5.00 Fair with Haze CLR 50 21.2 32% 47 30.11 0.0
09 23:15 S 8 5.00 Fair with Haze CLR 50 21.2 32% 47 30.11 0.0
09 22:55 S 8 5.00 Fair with Haze CLR 50 23 35% 47 30.11 0.0
09 22:35 S 12 5.00 Fair with Haze CLR 46.4 24.8 43% 42 30.1 0.0
09 22:15 S 7 5.00 Fair with Haze CLR 53.6 23 30% 30.1 0.0
09 21:55 S 9 4.00 Fair with Haze CLR 55.4 23 28% 30.09 0.0
09 21:35 SW 10 3.00 Fair with Haze CLR 53.6 23 30% 30.08 0.0
09 21:15 SE 6 5.00 Fair with Haze CLR 55.4 28.4 36% 30.07 0.0
09 20:55 SE 1 5.00 Fair with Haze CLR 62.6 26.6 25% 30.06 0.0
09 20:35 NE 5 4.00 Fair with Haze CLR 66.2 26.6 22% 30.06 0.0
09 20:15 NE 6 4.00 Fair with Haze CLR 68 28.4 23% 30.05 0.0
09 19:55 NE 6 5.00 Fair with Haze CLR 71.6 28.4 20% 30.05 0.0
09 19:35 E 6 5.00 Fair with Haze CLR 77 21.2 12% 76 30.05 0.0
09 19:15 Vrbl 1 5.00 Fair with Haze CLR 77 14 9% 76 30.05 0.0
09 18:55 SE 3 5.00 Fair with Haze CLR 78.8 14 8% 77 30.05 0.0
09 18:35 W 5 5.00 Fair with Haze CLR 75.2 15.8 10% 75 30.05 0.0
09 18:15 Vrbl 2 5.00 Fair with Haze CLR 77 17.6 11% 76 30.06 0.0
09 17:55 NE 3 5.00 Fair with Haze CLR 75.2 19.4 76.5 67.8 12% 75 30.06 0.0
09 17:35 N 6 5.00 Fair with Haze CLR 75.2 21.2 13% 75 30.07 0.0
09 17:15 NE 8 6.00 Fair with Haze CLR 73.4 21.2 14% 30.07 0.0
09 16:55 NE 8 5.00 Fair with Haze CLR 73.4 23 15% 30.07 0.0
09 16:35 NE 8 5.00 Fair with Haze CLR 75.2 23 14% 75 30.08 0.0
09 16:15 Vrbl 7 6.00 Fair with Haze CLR 73.4 24.8 16% 30.08 0.0
09 15:55 NE 10 6.00 Fair with Haze CLR 73.4 26.6 17% 30.09 0.0
09 15:35 Vrbl 6 5.00 Fair with Haze CLR 75.2 26.6 16% 76 30.09 0.0
09 15:15 Vrbl 3 5.00 Fair with Haze CLR 73.4 26.6 17% 30.1 0.0
09 14:55 N 6 6.00 Fair with Haze CLR 71.6 26.6 19% 30.1 0.0
09 14:35 N 6 6.00 Fair with Haze CLR 71.6 26.6 19% 30.11 0.0
09 14:15 Vrbl 5 6.00 Fair with Haze CLR 71.6 26.6 19% 30.11 0.0
09 13:55 N 9 6.00 Fair with Haze CLR 71.6 28.4 20% 30.11 0.0
09 13:35 NE 10 6.00 Fair with Haze CLR 71.6 28.4 20% 30.12 0.0
09 13:15 N 8 4.00 Fair with Haze CLR 69.8 30.2 23% 30.12 0.0
09 12:55 NE 8 6.00 Fair with Haze CLR 69.8 28.4 21% 30.13 0.0
09 12:35 Vrbl 5 6.00 Fair with Haze CLR 69.8 30.2 23% 30.13 0.0
09 12:15 Vrbl 6 6.00 Fair with Haze CLR 68 30.2 24% 30.13 0.0
09 11:55 NE 10 6.00 Fair with Haze CLR 69.8 30.2 68.4 43.3 23% 30.13 0.0
09 11:35 Vrbl 5 6.00 Fair with Haze CLR 68 28.4 23% 30.14 0.0
09 11:15 N 12 6.00 Fair with Haze CLR 68 28.4 23% 30.13 0.0
09 10:55 N 8 6.00 Fair with Haze CLR 68 28.4 23% 30.13 0.0
09 10:35 N 8 6.00 Fair with Haze CLR 66.2 30.2 26% 30.13 0.0
09 10:15 N 6 6.00 Fair with Haze CLR 66.2 30.2 26% 30.13 0.0
09 09:55 N 7 5.00 Fair with Haze CLR 66.2 28.4 24% 30.13 0.0
09 09:35 NE 9 6.00 Fair with Haze CLR 66.2 28.4 24% 30.13 0.0
09 09:15 Vrbl 2 5.00 Fair with Haze CLR 66.2 30.2 26% 30.13 0.0
09 08:55 Calm 5.00 Fair with Haze CLR 64.4 33.8 32% 30.12 0.0
09 08:35 N 3 5.00 Fair with Haze CLR 62.6 35.6 37% 30.12 0.0
09 08:15 W 2 5.00 Fair with Haze CLR 60.8 35.6 39% 30.12 0.0
09 07:55 S 5 5.00 Fair with Haze CLR 59 37.4 45% 30.11 0.0
09 07:16 S 7 5.00 Fair with Haze CLR 48.2 35.6 62% 46 30.09 0.0
09 06:55 S 10 5.00 Fair with Haze CLR 44.6 35.6 71% 40 30.09 0.0
09 06:35 S 7 4.00 Fair with Haze CLR 44.6 33.8 66% 41 30.08 0.0
09 06:15 S 8 5.00 Fair with Haze CLR 44.6 35.6 71% 41 30.08 0.0
09 05:55 SW 7 5.00 Fair with Haze CLR 44.6 35.6 57.4 41.4 71% 41 30.07 0.0
09 05:35 S 9 5.00 Fair with Haze CLR 42.8 33.8 71% 38 30.07 0.0
09 05:15 S 8 5.00 Fair with Haze CLR 44.6 35.6 71% 41 30.07 0.0
09 04:55 S 8 5.00 Fair with Haze CLR 44.6 35.6 71% 41 30.07 0.0
09 04:35 SE 7 5.00 Fair with Haze CLR 46.4 35.6 66% 43 30.07 0.0
09 04:15 S 5 5.00 Fair with Haze CLR 46.4 33.8 62% 45 30.06 0.0
09 03:55 S 5 5.00 Fair with Haze CLR 48.2 35.6 62% 47 30.06 0.0
09 03:35 Vrbl 3 4.00 Fair with Haze CLR 48.2 35.6 62% 30.05 0.0
09 03:15 S 5 4.00 Fair with Haze CLR 48.2 35.6 62% 47 30.05 0.0
09 02:55 Vrbl 3 4.00 Fair with Haze CLR 50 35.6 58% 30.04 0.0
09 02:35 W 3 4.00 Fair with Haze CLR 50 33.8 54% 30.04 0.0
09 02:15 S 3 4.00 Fair with Haze CLR 53.6 35.6 51% 30.03 0.0
09 01:55 S 5 4.00 A Few Clouds with Haze FEW120 51.8 35.6 54% 30.03 0.0
09 01:35 SE 6 4.00 A Few Clouds with Haze FEW120 53.6 35.6 51% 30.02 0.0
09 01:15 W 7 4.00 Fair with Haze CLR 53.6 33.8 47% 30.01 0.0
09 00:55 SW 5 4.00 Fair with Haze CLR 55.4 30.2 38% 30.01 0.0
09 00:35 Vrbl 6 4.00 Fair with Haze CLR 55.4 32 41% 30 0.0
09 00:15 SW 6 4.00 A Few Clouds with Haze FEW120 51.8 32 47% 29.99 0.0
08 23:55 S 10 4.00 A Few Clouds with Haze FEW120 51.8 33.8 83.5 47.5 50% 29.99 0.0
08 23:35 S 6 4.00 Fair with Haze CLR 57.2 33.8 41% 29.99 0.0
08 23:15 Vrbl 2 5.00 Fair with Haze CLR 53.6 32 44% 29.99 0.0
08 22:55 S 7 5.00 Fair with Haze CLR 55.4 32 41% 29.97 0.0
08 22:35 S 7 5.00 Fair with Haze CLR 59 32 36% 29.97 0.0
08 22:15 S 7 4.00 Fair with Haze CLR 59 32 36% 29.96 0.0
08 21:55 S 8 4.00 Fair with Haze CLR 59 32 36% 29.96 0.0
08 21:35 S 8 4.00 Fair with Haze CLR 66.2 30.2 26% 29.95 0.0
08 21:15 SW 9 4.00 Fair with Haze CLR 60.8 33.8 36% 29.94 0.0
08 20:35 SE 2 4.00 Fair with Haze CLR 66.2 33.8 30% 29.93 0.0
08 20:15 E 5 4.00 Fair with Haze CLR 75.2 32 21% 76 29.93 0.0
08 19:55 SE 5 4.00 Fair with Haze CLR 75.2 35.6 24% 76 29.93 0.0
08 19:35 E 6 4.00 Fair with Haze CLR 78.8 32 18% 78 29.93 0.0
08 19:15 E 6 4.00 Fair with Haze CLR 82.4 28.4 14% 80 29.94 0.0
08 18:56 Vrbl 3 4.00 Fair with Haze CLR 82.4 26.6 13% 80 29.94 0.0
08 18:35 E 5 4.00 Fair with Haze CLR 82.4 28.4 14% 80 29.95 0.0
08 18:16 SE 6 4.00 Fair with Haze CLR 82.4 28.4 14% 80 29.95 0.0
08 17:55 SE 6 4.00 Fair with Haze CLR 82.4 28.4 82.4 71.6 14% 80 29.95 0.0
08 17:35 NE 8 4.00 Fair with Haze CLR 80.6 28.4 15% 79 29.96 0.0
08 16:55 Vrbl 5 4.00 Fair with Haze CLR 78.8 28.4 16% 78 29.97 0.0
08 16:36 N 8 4.00 Fair with Haze CLR 78.8 28.4 16% 78 29.97 0.0
08 16:15 Vrbl 7 5.00 Fair with Haze CLR 78.8 28.4 16% 78 29.99 0.0
08 15:55 NE 6 5.00 Fair with Haze CLR 78.8 30.2 17% 78 29.99 0.0
08 15:35 NE 12 G 17 5.00 Fair with Haze CLR 78.8 30.2 17% 78 30 0.0
08 15:15 N 13 G 17 5.00 Fair with Haze CLR 77 30.2 18% 77 30.01 0.0
08 14:55 N 8 4.00 Fair with Haze CLR 77 30.2 18% 77 30.01 0.0
08 14:35 N 12 4.00 Fair with Haze CLR 77 30.2 18% 77 30.02 0.0
08 14:15 N 7 5.00 Fair with Haze CLR 75.2 30.2 19% 76 30.02 0.0
08 13:35 N 9 3.00 Fair with Haze CLR 75.2 30.2 19% 76 30.03 0.0
08 13:15 N 8 G 17 4.00 Fair with Haze CLR 75.2 30.2 19% 76 30.03 0.0
08 12:55 N 9 4.00 Fair with Haze CLR 73.4 28.4 19% 30.04 0.0
08 12:35 Vrbl 6 5.00 Fair with Haze CLR 73.4 30.2 20% 30.05 0.0
08 12:15 N 9 5.00 Fair with Haze CLR 73.4 32 22% 30.05 0.0
08 11:35 Vrbl 5 5.00 Fair with Haze CLR 71.6 30.2 22% 30.06 0.0
08 10:55 N 12 5.00 Fair with Haze CLR 71.6 30.2 22% 30.06 0.0
08 10:35 N 7 5.00 Fair with Haze CLR 71.6 30.2 22% 30.06 0.0
08 10:15 N 7 5.00 Fair with Haze CLR 69.8 33.8 27% 30.05 0.0
08 09:55 NE 5 5.00 Fair with Haze CLR 68 35.6 30% 30.05 0.0
08 09:35 N 8 5.00 Fair with Haze CLR 68 35.6 30% 30.05 0.0
08 09:15 Vrbl 5 4.00 Fair with Haze CLR 68 35.6 30% 30.05 0.0
08 08:55 Vrbl 1 4.00 Fair with Haze CLR 66.2 37.4 35% 30.04 0.0
08 08:35 SW 5 4.00 Fair with Haze CLR 62.6 37.4 39% 30.04 0.0
08 08:15 SW 6 4.00 Fair with Haze CLR 60.8 35.6 39% 30.03 0.0
08 07:35 S 6 4.00 Fair with Haze CLR 55.4 35.6 47% 30.03 0.0
08 07:15 S 7 4.00 Fair with Haze CLR 50 35.6 58% 48 30.02 0.0
08 06:55 S 8 5.00 Fair with Haze CLR 46.4 33.8 62% 43 30.01 0.0
08 06:35 SW 5 4.00 Fair with Haze CLR 44.6 33.8 66% 43 30.01 0.0
08 06:15 S 8 5.00 A Few Clouds with Haze FEW049 46.4 35.6 66% 43 30 0.0
08 05:55 S 8 5.00 Partly Cloudy with Haze SCT049 44.6 35.6 54.3 44.1 71% 41 29.99 0.0
08 05:35 S 10 5.00 A Few Clouds with Haze FEW049 46.4 33.8 62% 42 29.99 0.0
08 05:15 SE 5 5.00 Fair with Haze CLR 50 35.6 58% 49 30 0.0
08 04:55 S 9 5.00 A Few Clouds with Haze FEW050 46.4 33.8 62% 42 29.99 0.0
08 04:15 S 10 5.00 Fair with Haze CLR 46.4 35.6 66% 42 29.99 0.0
08 03:55 S 7 5.00 Fair with Haze CLR 48.2 33.8 58% 46 29.99 0.0
08 03:35 S 7 5.00 Fair with Haze CLR 50 33.8 54% 48 29.99 0.0
08 03:15 S 9 5.00 Fair with Haze CLR 48.2 35.6 62% 45 29.98 0.0
08 02:55 S 9 5.00 Fair with Haze CLR 50 35.6 58% 47 29.98 0.0
08 02:35 SE 7 5.00 Fair with Haze CLR 51.8 35.6 54% 29.98 0.0
08 02:15 Vrbl 1 4.00 Fair with Haze CLR 51.8 33.8 50% 29.98 0.0
08 01:55 S 8 5.00 Fair with Haze CLR 51.8 33.8 50% 29.97 0.0
08 01:35 S 9 5.00 Fair with Haze CLR 51.8 33.8 50% 29.98 0.0
08 01:15 S 9 5.00 Fair with Haze CLR 51.8 35.6 54% 29.98 0.0
08 00:55 S 13 5.00 Fair with Haze CLR 51.8 35.6 54% 29.97 0.0
08 00:35 S 8 5.00 Fair with Haze CLR 51.8 35.6 54% 29.97 0.0
08 00:15 S 10 5.00 Fair with Haze CLR 50 35.6 58% 46 29.97 0.0
07 23:55 S 7 5.00 Fair with Haze CLR 50 35.6 82 49.6 58% 48 29.97 0.0
07 23:35 SE 6 5.00 Fair with Haze CLR 53.6 35.6 51% 29.97 0.0
07 23:15 S 5 5.00 Fair with Haze CLR 53.6 35.6 51% 29.96 0.0
07 22:55 S 8 5.00 Fair with Haze CLR 53.6 35.6 51% 29.95 0.0
07 22:35 S 9 5.00 Fair with Haze CLR 55.4 35.6 47% 29.95 0.0
07 22:15 S 12 5.00 A Few Clouds with Haze FEW120 51.8 35.6 54% 29.95 0.0
07 21:55 S 8 4.00 A Few Clouds with Haze FEW120 57.2 35.6 44% 29.95 0.0
07 21:35 SW 6 4.00 Fair with Haze CLR 57.2 35.6 44% 29.94 0.0
07 21:15 SE 6 4.00 Fair with Haze CLR 57.2 37.4 48% 29.93 0.0
07 20:55 NE 5 5.00 Fair with Haze CLR 64.4 35.6 34% 29.93 0.0
07 20:35 NE 9 4.00 Fair with Haze CLR 68 35.6 30% 29.92 0.0
07 20:15 E 6 5.00 Fair with Haze CLR 75.2 35.6 24% 76 29.92 0.0
07 19:55 E 6 5.00 Fair with Haze CLR 78.8 39.2 24% 78 29.92 0.0
07 19:35 E 5 5.00 Fair with Haze CLR 78.8 32 18% 78 29.92 0.0
07 19:15 E 3 5.00 Fair with Haze CLR 82.4 30.2 15% 80 29.92 0.0
07 18:55 Vrbl 2 5.00 Fair with Haze CLR 80.6 30.2 16% 79 29.92 0.0
07 18:35 E 5 5.00 Fair with Haze CLR 78.8 30.2 17% 78 29.92 0.0
07 18:15 Vrbl 3 5.00 Fair with Haze CLR 78.8 30.2 17% 78 29.93 0.0
07 17:55 Vrbl 3 5.00 Fair with Haze CLR 78.8 28.4 80.4 72.3 16% 78 29.94 0.0
07 17:35 Vrbl 2 5.00 Fair with Haze CLR 77 30.2 18% 77 29.94 0.0
07 17:15 Vrbl 3 5.00 Fair with Haze CLR 78.8 28.4 16% 78 29.95 0.0
07 16:55 Vrbl 2 5.00 Fair with Haze CLR 77 28.4 17% 77 29.95 0.0
07 16:35 W 7 5.00 Fair with Haze CLR 77 28.4 17% 77 29.96 0.0
07 16:16 N 9 5.00 Fair with Haze CLR 77 30.2 18% 77 29.97 0.0
07 15:55 N 9 G 17 5.00 Fair with Haze CLR 78.8 30.2 17% 78 29.98 0.0
07 15:36 Vrbl 7 5.00 Fair with Haze CLR 77 30.2 18% 77 29.98 0.0
07 15:15 Vrbl 5 5.00 Partly Cloudy with Haze SCT100 77 28.4 17% 77 29.99 0.0
07 14:55 Vrbl 3 5.00 Partly Cloudy with Haze SCT100 77 28.4 17% 77 30 0.0
07 14:35 Vrbl 7 5.00 Partly Cloudy with Haze SCT100 77 28.4 17% 77 30.01 0.0
07 14:15 Vrbl 6 5.00 Partly Cloudy with Haze SCT100 75.2 28.4 18% 76 30.01 0.0
07 13:55 Vrbl 5 5.00 Fair with Haze CLR 75.2 28.4 18% 76 30.02 0.0
07 13:35 N 8 5.00 Fair with Haze CLR 73.4 28.4 19% 30.02 0.0
07 13:15 N 10 5.00 Fair with Haze CLR 75.2 30.2 19% 76 30.03 0.0
07 12:55 N 8 5.00 A Few Clouds with Haze FEW110 73.4 28.4 19% 30.03 0.0
07 12:35 NW 10 5.00 Partly Cloudy with Haze SCT110 73.4 28.4 19% 30.04 0.0
07 12:15 N 10 5.00 Mostly Cloudy with Haze BKN110 73.4 30.2 20% 30.04 0.0
07 11:55 Vrbl 2 5.00 Fair with Haze CLR 75.2 26.6 74.8 49.6 16% 76 30.04 0.0
07 11:35 S 13 5.00 A Few Clouds with Haze FEW120 73.4 26.6 17% 30.04 0.0
07 11:15 S 14 5.00 A Few Clouds with Haze FEW120 73.4 26.6 17% 30.04 0.0
07 10:55 S 17 5.00 A Few Clouds with Haze FEW120 71.6 26.6 19% 30.04 0.0
07 10:35 S 16 G 25 5.00 Partly Cloudy with Haze SCT120 69.8 26.6 20% 30.05 0.0
07 10:15 S 21 G 25 5.00 Partly Cloudy with Haze and Breezy SCT120 66.2 28.4 24% 30.05 0.0
07 09:55 S 21 G 28 5.00 A Few Clouds with Haze and Breezy FEW120 64.4 28.4 26% 30.05 0.0
07 09:35 S 23 G 33 5.00 A Few Clouds with Haze and Breezy FEW120 64.4 24.8 22% 30.05 0.0
07 09:15 S 24 G 32 5.00 Partly Cloudy with Haze and Breezy SCT120 60.8 24.8 25% 30.05 0.0
07 08:55 S 25 G 31 4.00 Partly Cloudy with Haze and Breezy SCT120 59 23 25% 30.04 0.0
Date Time (mdt) Wind (mph) Vis. (mi.) Weather Sky Cond. Air Dwpt Max. Min. Relative Humidity Wind Chill (°F) Heat Index (°F) altimeter (in) sea level (mb) 1 hr 3 hr 6 hr
6 hour
Temperature (ºF) Pressure Precipitation (in)